Time;durP1;ratioP1;P1;durP2;ratioP2;P2;SDS_P1;SDS_P2;PMS_P1;PMS_P2;Temp;Humidity;BMP_temperature;BMP_pressure;BME280_temperature;BME280_humidity;BME280_pressure;Samples;Min_cycle;Max_cycle;Signal;HPM_P1;HPM_P2
2022/12/22 03:26:18;;;;;;;10.18;7.30;;;;;;;;;;5052097;28;20095;-61
2022/12/22 03:28:44;;;;;;;11.13;7.13;;;;;;;;;;5052009;28;20472;-63
2022/12/22 03:31:10;;;;;;;10.70;7.15;;;;;;;;;;5051956;28;20075;-63
2022/12/22 03:33:36;;;;;;;12.30;7.85;;;;;;;;;;5051923;28;20021;-61
2022/12/22 03:36:02;;;;;;;10.13;7.50;;;;;;;;;;5052171;28;20021;-62
2022/12/22 03:38:28;;;;;;;10.65;7.20;;;;;;;;;;5052108;28;20024;-62
2022/12/22 03:40:54;;;;;;;10.63;7.40;;;;;;;;;;5034085;28;20437;-64
2022/12/22 03:48:39;;;;;;;10.85;6.95;;;;;;;;;;5051835;28;20082;-62
2022/12/22 03:51:05;;;;;;;10.05;7.10;;;;;;;;;;5051686;28;20029;-61
2022/12/22 03:53:30;;;;;;;9.82;7.07;;;;;;;;;;5051643;28;20056;-62
2022/12/22 03:55:56;;;;;;;11.95;7.60;;;;;;;;;;5051486;28;20069;-61
2022/12/22 03:58:22;;;;;;;9.90;6.82;;;;;;;;;;5054347;28;20115;-63
2022/12/22 04:00:47;;;;;;;13.73;7.60;;;;;;;;;;5055244;28;20025;-62
2022/12/22 04:03:13;;;;;;;12.20;7.55;;;;;;;;;;5055362;28;20080;-62
2022/12/22 04:05:39;;;;;;;13.65;7.57;;;;;;;;;;5055206;28;20025;-62
2022/12/22 04:08:05;;;;;;;13.05;7.72;;;;;;;;;;5055471;28;20052;-62
2022/12/22 04:13:31;;;;;;;11.48;7.47;;;;;;;;;;4993548;28;20505;-62
2022/12/22 04:15:57;;;;;;;11.48;7.47;;;;;;;;;;5024558;28;20036;-62
2022/12/22 04:18:22;;;;;;;11.85;7.40;;;;;;;;;;5054916;28;20116;-62
2022/12/22 04:20:48;;;;;;;12.07;7.47;;;;;;;;;;5055297;28;20108;-62
2022/12/22 04:23:13;;;;;;;10.43;7.50;;;;;;;;;;5054940;28;20013;-63
2022/12/22 04:25:39;;;;;;;15.35;8.45;;;;;;;;;;5037103;28;20029;-63
2022/12/22 04:28:05;;;;;;;10.75;7.25;;;;;;;;;;5055129;28;20059;-63
2022/12/22 04:30:30;;;;;;;11.85;7.80;;;;;;;;;;5054697;28;20029;-62
2022/12/22 04:32:56;;;;;;;12.65;7.85;;;;;;;;;;5054777;28;20017;-63
2022/12/22 04:35:21;;;;;;;9.75;7.50;;;;;;;;;;5054960;28;20027;-61
2022/12/22 04:37:47;;;;;;;12.15;7.75;;;;;;;;;;5054557;28;20496;-60
2022/12/22 04:40:13;;;;;;;12.38;7.60;;;;;;;;;;5054594;28;20029;-62
2022/12/22 04:42:38;;;;;;;13.75;7.95;;;;;;;;;;5054608;28;20021;-62
2022/12/22 04:45:04;;;;;;;13.50;7.65;;;;;;;;;;5054462;28;20022;-62
2022/12/22 04:47:30;;;;;;;12.35;7.55;;;;;;;;;;5054764;28;20033;-61
2022/12/22 04:49:55;;;;;;;11.68;8.15;;;;;;;;;;5054396;28;20440;-62
2022/12/22 04:52:21;;;;;;;12.60;7.53;;;;;;;;;;5054477;28;20074;-62
2022/12/22 04:54:47;;;;;;;11.40;7.35;;;;;;;;;;5054340;28;20025;-62
2022/12/22 04:57:12;;;;;;;13.50;7.32;;;;;;;;;;5054227;28;20045;-61
2022/12/22 04:59:38;;;;;;;11.88;7.72;;;;;;;;;;5054423;28;20025;-63
2022/12/22 05:02:03;;;;;;;12.00;7.63;;;;;;;;;;5054210;28;20414;-62
2022/12/22 05:04:29;;;;;;;13.70;8.00;;;;;;;;;;5054126;28;20025;-62
2022/12/22 05:06:54;;;;;;;12.07;7.57;;;;;;;;;;5054129;28;20487;-62
2022/12/22 05:09:20;;;;;;;11.68;7.53;;;;;;;;;;5053712;28;20021;-62
2022/12/22 05:11:45;;;;;;;11.48;7.72;;;;;;;;;;5054243;28;20029;-61
2022/12/22 05:14:11;;;;;;;11.57;7.53;;;;;;;;;;5036389;28;20068;-64
2022/12/22 05:16:37;;;;;;;12.55;8.40;;;;;;;;;;5054165;28;20137;-61
2022/12/22 05:19:02;;;;;;;11.25;7.47;;;;;;;;;;5053734;28;20051;-62
2022/12/22 05:21:28;;;;;;;12.05;7.82;;;;;;;;;;5053841;28;20100;-62
2022/12/22 05:23:53;;;;;;;13.07;7.68;;;;;;;;;;5053661;28;20021;-62
2022/12/22 05:26:19;;;;;;;12.32;7.55;;;;;;;;;;5053968;28;20464;-61
2022/12/22 05:28:46;;;;;;;11.95;7.70;;;;;;;;;;5053585;28;20587;-61
2022/12/22 05:31:20;;;;;;;13.18;7.32;;;;;;;;;;5053571;28;20431;-61
2022/12/22 05:33:47;;;;;;;13.68;7.97;;;;;;;;;;5035746;28;20100;-61
2022/12/22 05:36:12;;;;;;;13.25;7.55;;;;;;;;;;5053552;28;20037;-62
2022/12/22 05:38:39;;;;;;;12.40;7.88;;;;;;;;;;5053369;28;20037;-62
2022/12/22 05:41:05;;;;;;;13.57;8.00;;;;;;;;;;5053740;28;20029;-61
2022/12/22 05:43:34;;;;;;;11.93;7.75;;;;;;;;;;5053193;28;20036;-62
2022/12/22 05:46:02;;;;;;;11.70;7.65;;;;;;;;;;5053255;28;20480;-62
2022/12/22 05:48:28;;;;;;;11.80;7.85;;;;;;;;;;5053122;28;20162;-61
2022/12/22 05:50:53;;;;;;;12.85;7.70;;;;;;;;;;5053460;28;20486;-61
2022/12/22 05:53:19;;;;;;;13.15;8.15;;;;;;;;;;5035279;28;20025;-62
2022/12/22 05:55:44;;;;;;;12.32;8.25;;;;;;;;;;5052900;28;20496;-62
2022/12/22 05:58:10;;;;;;;12.43;8.32;;;;;;;;;;5053039;28;20044;-62
2022/12/22 06:00:35;;;;;;;12.10;8.15;;;;;;;;;;5053027;28;20028;-61
2022/12/22 06:03:01;;;;;;;14.32;8.00;;;;;;;;;;5052959;28;20028;-62
2022/12/22 06:05:26;;;;;;;11.52;7.07;;;;;;;;;;5052924;28;20025;-61
2022/12/22 06:07:52;;;;;;;12.13;7.97;;;;;;;;;;5053098;28;20064;-63
2022/12/22 06:10:19;;;;;;;11.55;7.47;;;;;;;;;;5052917;28;20415;-65
2022/12/22 06:12:45;;;;;;;12.20;7.47;;;;;;;;;;5052717;28;20083;-62
2022/12/22 06:15:13;;;;;;;11.82;7.35;;;;;;;;;;5052663;28;20025;-63
2022/12/22 06:17:39;;;;;;;11.55;7.80;;;;;;;;;;5052581;28;20087;-61
2022/12/22 06:20:06;;;;;;;10.55;7.40;;;;;;;;;;5052011;28;20025;-61
2022/12/22 06:22:32;;;;;;;12.05;8.07;;;;;;;;;;5052622;28;20104;-61
2022/12/22 06:24:58;;;;;;;12.00;7.65;;;;;;;;;;5052498;28;20033;-62
2022/12/22 06:27:23;;;;;;;13.70;8.18;;;;;;;;;;5052525;28;20079;-62
2022/12/22 06:29:51;;;;;;;12.50;7.82;;;;;;;;;;5052753;28;20032;-61
2022/12/22 06:32:17;;;;;;;12.73;8.10;;;;;;;;;;5052493;28;20032;-63
2022/12/22 06:34:42;;;;;;;12.82;8.20;;;;;;;;;;5052565;28;20021;-63
2022/12/22 06:37:08;;;;;;;12.23;8.05;;;;;;;;;;5052456;28;20511;-62
2022/12/22 06:39:34;;;;;;;12.82;8.00;;;;;;;;;;5052377;28;20376;-62
2022/12/22 06:44:44;;;;;;;12.63;7.70;;;;;;;;;;5052454;28;20031;-61
2022/12/22 06:47:09;;;;;;;11.82;8.27;;;;;;;;;;5052282;28;20025;-61
2022/12/22 06:49:35;;;;;;;11.82;8.00;;;;;;;;;;5034413;28;20029;-62
2022/12/22 06:52:01;;;;;;;13.20;7.88;;;;;;;;;;5052318;28;20021;-62
2022/12/22 06:54:26;;;;;;;12.95;8.00;;;;;;;;;;5052136;28;20029;-62
2022/12/22 06:56:52;;;;;;;11.02;7.43;;;;;;;;;;5032845;28;20091;-62
2022/12/22 06:59:17;;;;;;;12.70;8.38;;;;;;;;;;5051916;28;20473;-62
2022/12/22 07:01:43;;;;;;;11.55;7.95;;;;;;;;;;5050635;28;20044;-62
2022/12/22 07:04:09;;;;;;;13.95;8.30;;;;;;;;;;5050539;28;20233;-62
2022/12/22 07:06:35;;;;;;;12.30;7.88;;;;;;;;;;5050224;28;20495;-63
2022/12/22 07:09:01;;;;;;;14.50;7.90;;;;;;;;;;5050307;28;20063;-62
2022/12/22 07:11:26;;;;;;;12.82;7.88;;;;;;;;;;5050598;28;20064;-62
2022/12/22 07:13:52;;;;;;;10.23;7.55;;;;;;;;;;5050380;28;20025;-62
2022/12/22 07:16:18;;;;;;;11.85;7.72;;;;;;;;;;5051390;28;20062;-61
2022/12/22 07:18:44;;;;;;;13.57;8.32;;;;;;;;;;5052154;28;20037;-62
2022/12/22 07:21:13;;;;;;;11.20;8.15;;;;;;;;;;5052007;28;20100;-63
2022/12/22 07:23:40;;;;;;;12.55;8.38;;;;;;;;;;5052046;28;20500;-61
2022/12/22 07:26:07;;;;;;;12.63;7.88;;;;;;;;;;5051744;28;20069;-61
2022/12/22 07:28:35;;;;;;;12.10;7.63;;;;;;;;;;5051830;28;20067;-62
2022/12/22 07:31:01;;;;;;;12.55;7.82;;;;;;;;;;5052689;28;20473;-62
2022/12/22 07:33:27;;;;;;;12.55;8.18;;;;;;;;;;5056038;28;20053;-61
2022/12/22 07:36:03;;;;;;;12.68;7.88;;;;;;;;;;5055803;28;20079;-61
2022/12/22 07:38:31;;;;;;;11.98;7.47;;;;;;;;;;5055815;28;20025;-62
2022/12/22 07:40:59;;;;;;;13.38;8.35;;;;;;;;;;5055698;28;20072;-63
2022/12/22 07:43:25;;;;;;;14.63;8.88;;;;;;;;;;5055629;28;20012;-62
2022/12/22 07:45:52;;;;;;;12.95;8.82;;;;;;;;;;5055865;28;20404;-62
2022/12/22 07:51:04;;;;;;;13.32;8.10;;;;;;;;;;5056108;28;20491;-62
2022/12/22 07:53:32;;;;;;;14.40;8.27;;;;;;;;;;5055417;28;20025;-62
2022/12/22 07:56:01;;;;;;;14.05;8.30;;;;;;;;;;5055296;28;20048;-61
2022/12/22 07:58:27;;;;;;;11.95;8.38;;;;;;;;;;5055575;28;20041;-62
2022/12/22 08:00:59;;;;;;;15.38;8.80;;;;;;;;;;5055555;28;20518;-61
2022/12/22 08:03:25;;;;;;;14.23;8.68;;;;;;;;;;5052120;28;20534;-61
2022/12/22 08:05:51;;;;;;;14.07;8.50;;;;;;;;;;5050344;28;20029;-64
2022/12/22 08:08:16;;;;;;;11.63;8.00;;;;;;;;;;5047764;28;20416;-62
2022/12/22 08:10:42;;;;;;;13.32;8.65;;;;;;;;;;5049247;28;20048;-62
2022/12/22 08:13:07;;;;;;;15.77;8.73;;;;;;;;;;5047904;28;20032;-63
2022/12/22 08:15:33;;;;;;;12.90;8.15;;;;;;;;;;5048803;28;20036;-62
2022/12/22 08:17:59;;;;;;;13.68;8.70;;;;;;;;;;5047513;28;20029;-62
2022/12/22 08:20:24;;;;;;;12.35;8.07;;;;;;;;;;5050620;28;20032;-62
2022/12/22 08:22:50;;;;;;;12.27;8.07;;;;;;;;;;5048201;28;20029;-65
2022/12/22 08:25:16;;;;;;;12.07;8.30;;;;;;;;;;5054447;28;20029;-62
2022/12/22 08:27:47;;;;;;;12.23;8.60;;;;;;;;;;5053151;28;20017;-62
2022/12/22 08:30:13;;;;;;;14.32;8.80;;;;;;;;;;5028083;28;20042;-63
2022/12/22 08:32:40;;;;;;;16.65;8.45;;;;;;;;;;5033149;28;20026;-63
2022/12/22 08:35:07;;;;;;;14.23;8.85;;;;;;;;;;5033399;28;20025;-63
2022/12/22 08:37:40;;;;;;;12.10;8.35;;;;;;;;;;5033112;28;20025;-63
2022/12/22 08:40:10;;;;;;;13.80;8.52;;;;;;;;;;5032974;28;20497;-64
2022/12/22 08:42:36;;;;;;;15.10;8.30;;;;;;;;;;5038596;28;20021;-63
2022/12/22 08:45:03;;;;;;;13.60;8.80;;;;;;;;;;5036271;28;20086;-63
2022/12/22 08:47:28;;;;;;;14.98;8.98;;;;;;;;;;5031632;28;20092;-62
2022/12/22 08:49:54;;;;;;;14.90;9.40;;;;;;;;;;5032819;28;20085;-63
2022/12/22 08:52:19;;;;;;;17.90;9.10;;;;;;;;;;5032740;28;20037;-63
2022/12/22 08:54:45;;;;;;;15.75;9.13;;;;;;;;;;5031484;28;20133;-63
2022/12/22 08:57:11;;;;;;;12.38;8.63;;;;;;;;;;5031991;28;20120;-62
2022/12/22 08:59:37;;;;;;;13.77;9.10;;;;;;;;;;5014198;28;20124;-64
2022/12/22 09:02:04;;;;;;;13.75;8.50;;;;;;;;;;5032377;28;20531;-63
2022/12/22 09:04:31;;;;;;;13.32;8.50;;;;;;;;;;5032536;28;20025;-62
2022/12/22 09:06:57;;;;;;;16.23;9.48;;;;;;;;;;5032518;28;20036;-64
2022/12/22 09:09:22;;;;;;;13.05;8.77;;;;;;;;;;5032600;28;20029;-62
2022/12/22 09:11:48;;;;;;;15.73;9.30;;;;;;;;;;5032346;28;20112;-63
2022/12/22 09:14:14;;;;;;;15.60;9.02;;;;;;;;;;5032333;28;20069;-62
2022/12/22 09:16:40;;;;;;;13.65;8.82;;;;;;;;;;5032389;28;20074;-62
2022/12/22 09:19:05;;;;;;;14.30;8.80;;;;;;;;;;5032102;28;20057;-62
2022/12/22 09:21:31;;;;;;;14.02;8.63;;;;;;;;;;5032375;28;20021;-63
2022/12/22 09:23:57;;;;;;;15.40;9.50;;;;;;;;;;5032151;28;20057;-61
2022/12/22 09:26:25;;;;;;;14.27;9.02;;;;;;;;;;5032176;28;20551;-62
2022/12/22 09:28:51;;;;;;;12.82;8.38;;;;;;;;;;5032277;28;20034;-62
2022/12/22 09:31:17;;;;;;;16.00;9.88;;;;;;;;;;5032177;28;20102;-62
2022/12/22 09:33:43;;;;;;;14.98;9.27;;;;;;;;;;5031793;28;20033;-65
2022/12/22 09:36:12;;;;;;;13.82;8.65;;;;;;;;;;5032035;28;20495;-63
2022/12/22 09:38:38;;;;;;;15.82;9.68;;;;;;;;;;5013879;28;20029;-62
2022/12/22 09:41:19;;;;;;;14.93;8.48;;;;;;;;;;5030620;28;20032;-62
2022/12/22 09:43:45;;;;;;;13.48;8.77;;;;;;;;;;5031727;28;20477;-62
2022/12/22 09:46:24;;;;;;;15.57;8.80;;;;;;;;;;5031888;28;20306;-62
2022/12/22 09:48:51;;;;;;;14.50;9.10;;;;;;;;;;5031577;28;20059;-62
2022/12/22 09:51:17;;;;;;;13.35;9.10;;;;;;;;;;5031705;28;20040;-62
2022/12/22 09:53:45;;;;;;;14.02;9.00;;;;;;;;;;5031728;28;20025;-62
2022/12/22 09:56:14;;;;;;;15.15;9.32;;;;;;;;;;5030596;28;20128;-62
2022/12/22 09:58:41;;;;;;;13.65;8.57;;;;;;;;;;5031479;28;20064;-63
2022/12/22 10:01:43;;;;;;;14.32;9.18;;;;;;;;;;5036698;28;20033;-61
2022/12/22 10:04:30;;;;;;;13.27;8.77;;;;;;;;;;5047164;28;20025;-62
2022/12/22 10:07:14;;;;;;;13.05;8.32;;;;;;;;;;5034895;28;20086;-64
2022/12/22 10:09:39;;;;;;;14.45;9.30;;;;;;;;;;5041727;28;20144;-61
2022/12/22 10:12:06;;;;;;;19.05;9.20;;;;;;;;;;5050491;28;20117;-62
2022/12/22 10:14:41;;;;;;;21.42;9.13;;;;;;;;;;5049996;28;20510;-61
2022/12/22 10:17:22;;;;;;;13.80;8.30;;;;;;;;;;5051119;28;20064;-61
2022/12/22 10:19:50;;;;;;;12.95;8.80;;;;;;;;;;5050781;28;20032;-62
2022/12/22 10:22:29;;;;;;;12.27;8.50;;;;;;;;;;5050455;28;20029;-61
2022/12/22 10:24:56;;;;;;;15.25;8.75;;;;;;;;;;5051151;28;20116;-61
2022/12/22 10:27:24;;;;;;;27.38;15.18;;;;;;;;;;5051008;28;20032;-61
2022/12/22 10:29:50;;;;;;;23.33;14.00;;;;;;;;;;5050913;28;20025;-61
2022/12/22 10:32:19;;;;;;;33.35;18.63;;;;;;;;;;5033566;28;20025;-61
2022/12/22 10:35:05;;;;;;;33.50;18.52;;;;;;;;;;5031111;28;20035;-61
2022/12/22 10:37:36;;;;;;;36.50;18.52;;;;;;;;;;5030609;28;20038;-61
2022/12/22 10:40:32;;;;;;;32.05;17.98;;;;;;;;;;5030787;28;20039;-61
2022/12/22 10:42:58;;;;;;;33.72;18.15;;;;;;;;;;5025363;28;20379;-61
2022/12/22 10:45:26;;;;;;;41.85;21.38;;;;;;;;;;5029535;28;20032;-60
2022/12/22 10:47:55;;;;;;;37.70;20.70;;;;;;;;;;5030717;28;20029;-61
2022/12/22 10:50:21;;;;;;;40.53;22.70;;;;;;;;;;5047782;28;20029;-63
2022/12/22 10:52:55;;;;;;;38.08;22.80;;;;;;;;;;5048588;28;20027;-61
2022/12/22 10:55:27;;;;;;;44.88;22.15;;;;;;;;;;5050597;28;20021;-61
2022/12/22 10:58:16;;;;;;;40.47;21.92;;;;;;;;;;5050526;28;20048;-61
2022/12/22 11:00:43;;;;;;;40.60;22.42;;;;;;;;;;5050528;28;20021;-61
2022/12/22 11:03:13;;;;;;;41.10;23.35;;;;;;;;;;5050637;28;20021;-61
2022/12/22 11:05:40;;;;;;;42.40;23.53;;;;;;;;;;5050527;28;20032;-61
2022/12/22 11:08:20;;;;;;;45.50;24.00;;;;;;;;;;5036936;28;20270;-61
2022/12/22 11:11:09;;;;;;;41.83;23.42;;;;;;;;;;5054577;28;20075;-60
2022/12/22 11:13:50;;;;;;;44.60;23.40;;;;;;;;;;5034666;28;20554;-61
2022/12/22 11:16:21;;;;;;;41.67;22.75;;;;;;;;;;5034562;28;20029;-61
2022/12/22 11:18:59;;;;;;;47.75;24.63;;;;;;;;;;5034696;28;20032;-61
2022/12/22 11:21:37;;;;;;;49.00;23.55;;;;;;;;;;5034425;28;20578;-61
2022/12/22 11:24:20;;;;;;;50.45;23.42;;;;;;;;;;5048471;28;20032;-61
2022/12/22 11:26:53;;;;;;;44.25;23.08;;;;;;;;;;5039878;28;20031;-61
2022/12/22 11:29:34;;;;;;;41.42;22.15;;;;;;;;;;5036470;28;20025;-61
2022/12/22 11:32:07;;;;;;;42.15;21.38;;;;;;;;;;5036553;28;20032;-61
2022/12/22 11:35:01;;;;;;;37.08;21.33;;;;;;;;;;5054130;28;20032;-61
2022/12/22 11:37:32;;;;;;;37.70;21.35;;;;;;;;;;5054163;28;20051;-60
2022/12/22 11:40:04;;;;;;;37.85;21.17;;;;;;;;;;5036116;28;20032;-60
2022/12/22 11:42:51;;;;;;;40.75;21.65;;;;;;;;;;5054088;28;20024;-60
2022/12/22 11:45:32;;;;;;;42.10;21.30;;;;;;;;;;5054016;28;20590;-64
2022/12/22 11:48:28;;;;;;;40.25;21.65;;;;;;;;;;5053850;28;20021;-60
2022/12/22 11:50:56;;;;;;;41.05;21.30;;;;;;;;;;5052498;28;20499;-58
2022/12/22 11:53:42;;;;;;;35.08;20.15;;;;;;;;;;5054280;28;20025;-61
2022/12/22 11:56:20;;;;;;;39.08;21.98;;;;;;;;;;5053504;28;20045;-61
2022/12/22 11:59:04;;;;;;;36.63;20.33;;;;;;;;;;5036037;28;20387;-61
2022/12/22 12:01:58;;;;;;;32.17;20.38;;;;;;;;;;5053844;28;20033;-61
2022/12/22 12:04:56;;;;;;;37.38;19.50;;;;;;;;;;5053679;28;20021;-62
2022/12/22 12:07:28;;;;;;;37.38;20.27;;;;;;;;;;5045066;28;20507;-60
2022/12/22 12:10:03;;;;;;;33.83;20.13;;;;;;;;;;5050408;28;20036;-60
2022/12/22 12:13:05;;;;;;;36.65;20.75;;;;;;;;;;5052954;28;20056;-61
2022/12/22 12:15:36;;;;;;;33.97;18.88;;;;;;;;;;5042568;28;20040;-62
2022/12/22 12:18:26;;;;;;;34.83;19.20;;;;;;;;;;5052220;28;20057;-64
2022/12/22 12:21:00;;;;;;;30.33;18.20;;;;;;;;;;5035378;28;20447;-60
2022/12/22 12:23:45;;;;;;;38.03;19.23;;;;;;;;;;5053281;28;20033;-61
2022/12/22 12:26:22;;;;;;;33.53;18.40;;;;;;;;;;5053321;28;20021;-61
2022/12/22 12:29:52;;;;;;;33.47;18.17;;;;;;;;;;5053232;28;20480;-61
2022/12/22 12:32:22;;;;;;;33.75;18.23;;;;;;;;;;4990856;28;20057;-63
2022/12/22 12:34:55;;;;;;;34.05;18.33;;;;;;;;;;5041009;28;20064;-62
2022/12/22 12:37:33;;;;;;;38.25;19.05;;;;;;;;;;5050193;28;20503;-62
2022/12/22 12:40:01;;;;;;;33.35;18.27;;;;;;;;;;5051997;28;20147;-61
2022/12/22 12:42:35;;;;;;;28.33;17.80;;;;;;;;;;5050954;28;20021;-61
2022/12/22 12:45:01;;;;;;;32.25;18.30;;;;;;;;;;5052953;28;20051;-63
2022/12/22 12:47:34;;;;;;;31.00;17.42;;;;;;;;;;5052886;28;20476;-61
2022/12/22 12:50:32;;;;;;;31.00;17.90;;;;;;;;;;5051685;28;20041;-61
2022/12/22 12:52:57;;;;;;;32.10;16.60;;;;;;;;;;5051732;28;20442;-61
2022/12/22 12:55:29;;;;;;;34.33;17.92;;;;;;;;;;5052480;28;20036;-62
2022/12/22 12:57:59;;;;;;;32.13;17.02;;;;;;;;;;5052676;28;20044;-62
2022/12/22 13:00:31;;;;;;;;;;;;;;;;;;5053360;28;20394;-61
2022/12/22 13:03:33;;;;;;;29.65;16.48;;;;;;;;;;5052618;28;19947;-61
2022/12/22 13:06:03;;;;;;;32.63;16.70;;;;;;;;;;5010054;28;20030;-63
2022/12/22 13:08:29;;;;;;;;;;;;;;;;;;5044484;28;20441;-63
2022/12/22 13:10:54;;;;;;;32.15;15.90;;;;;;;;;;5052545;28;20003;-63
2022/12/22 13:13:23;;;;;;;28.70;16.17;;;;;;;;;;5050815;28;20029;-65
2022/12/22 13:16:08;;;;;;;28.75;16.20;;;;;;;;;;5033410;28;20449;-63
2022/12/22 13:18:34;;;;;;;29.88;16.13;;;;;;;;;;5050151;28;20431;-63
2022/12/22 13:21:02;;;;;;;28.83;16.77;;;;;;;;;;5034141;28;20020;-63
2022/12/22 13:23:41;;;;;;;30.55;17.10;;;;;;;;;;5052255;28;20025;-62
2022/12/22 13:26:13;;;;;;;28.85;17.10;;;;;;;;;;5051582;28;20025;-62
2022/12/22 13:28:41;;;;;;;32.50;18.27;;;;;;;;;;5032869;28;20035;-64
2022/12/22 13:31:30;;;;;;;34.88;17.73;;;;;;;;;;5052091;28;20056;-63
2022/12/22 13:34:30;;;;;;;32.25;16.98;;;;;;;;;;5052305;28;20387;-62
2022/12/22 13:36:59;;;;;;;29.70;17.00;;;;;;;;;;5051842;28;20032;-63
2022/12/22 13:39:24;;;;;;;34.15;18.38;;;;;;;;;;5052085;28;20037;-60
2022/12/22 13:41:50;;;;;;;33.78;17.65;;;;;;;;;;5051827;28;20079;-61
2022/12/22 13:44:27;;;;;;;50.20;17.33;;;;;;;;;;5051740;28;20106;-61
2022/12/22 13:46:53;;;;;;;33.15;16.45;;;;;;;;;;5050725;28;20420;-61
2022/12/22 13:49:22;;;;;;;41.28;17.33;;;;;;;;;;5049105;28;20388;-61
2022/12/22 13:51:48;;;;;;;41.95;18.58;;;;;;;;;;5051289;28;20033;-61
2022/12/22 13:54:17;;;;;;;42.75;17.70;;;;;;;;;;5051590;28;20032;-62
2022/12/22 13:56:55;;;;;;;41.57;18.57;;;;;;;;;;5051395;28;20509;-60
2022/12/22 13:59:30;;;;;;;33.55;18.17;;;;;;;;;;5051429;28;20032;-62
2022/12/22 14:02:06;;;;;;;33.80;17.48;;;;;;;;;;5051590;28;20472;-60
2022/12/22 14:04:32;;;;;;;40.63;17.30;;;;;;;;;;5049737;28;20519;-61
2022/12/22 14:07:12;;;;;;;41.83;17.60;;;;;;;;;;5051448;28;20036;-61
2022/12/22 14:09:42;;;;;;;35.58;18.73;;;;;;;;;;5051395;28;20441;-62
2022/12/22 14:12:13;;;;;;;35.35;16.65;;;;;;;;;;5051411;28;20032;-61
2022/12/22 14:14:43;;;;;;;33.83;17.75;;;;;;;;;;5051604;28;20068;-61
2022/12/22 14:17:35;;;;;;;36.90;19.00;;;;;;;;;;5051280;28;20021;-61
2022/12/22 14:20:18;;;;;;;41.33;18.77;;;;;;;;;;5051396;28;20064;-61
2022/12/22 14:23:38;;;;;;;33.28;17.80;;;;;;;;;;5051307;28;20033;-60
2022/12/22 14:26:04;;;;;;;;;;;;;;;;;;4989648;28;20113;-61
2022/12/22 14:28:52;;;;;;;31.65;16.92;;;;;;;;;;5046903;28;19951;-61
2022/12/22 14:31:18;;;;;;;38.40;20.15;;;;;;;;;;5051034;28;20078;-61
2022/12/22 14:34:04;;;;;;;54.75;23.25;;;;;;;;;;5051310;28;20365;-61
2022/12/22 14:36:40;;;;;;;45.08;20.88;;;;;;;;;;5050853;28;20013;-65
2022/12/22 14:39:19;;;;;;;43.67;20.42;;;;;;;;;;5032888;28;20473;-60
2022/12/22 14:41:51;;;;;;;38.47;18.98;;;;;;;;;;5049038;28;20506;-60
2022/12/22 14:44:22;;;;;;;37.30;19.25;;;;;;;;;;5050176;28;20017;-61
2022/12/22 14:47:13;;;;;;;33.88;18.75;;;;;;;;;;5050459;28;20619;-60
2022/12/22 14:49:49;;;;;;;30.30;18.58;;;;;;;;;;5041963;28;20548;-61
2022/12/22 14:52:20;;;;;;;37.08;18.95;;;;;;;;;;5050881;28;20025;-61
2022/12/22 14:54:48;;;;;;;40.42;20.48;;;;;;;;;;5050613;28;20067;-61
2022/12/22 14:57:22;;;;;;;48.83;20.27;;;;;;;;;;5050611;28;20492;-60
2022/12/22 14:59:59;;;;;;;39.70;19.65;;;;;;;;;;5050513;28;20025;-61
2022/12/22 15:02:32;;;;;;;38.40;19.08;;;;;;;;;;5050681;28;20021;-62
2022/12/22 15:05:36;;;;;;;38.80;19.80;;;;;;;;;;5050631;28;20029;-63
2022/12/22 15:08:03;;;;;;;38.00;19.35;;;;;;;;;;5029685;28;20040;-61
2022/12/22 15:10:37;;;;;;;40.05;20.95;;;;;;;;;;5048923;28;20485;-61
2022/12/22 15:13:06;;;;;;;35.88;18.80;;;;;;;;;;5049690;28;20052;-61
2022/12/22 15:15:33;;;;;;;41.80;20.38;;;;;;;;;;5043054;28;20037;-60
2022/12/22 15:17:58;;;;;;;34.05;19.25;;;;;;;;;;5044565;28;20031;-61
2022/12/22 15:20:27;;;;;;;37.58;20.05;;;;;;;;;;5050403;28;20136;-63
2022/12/22 15:22:52;;;;;;;37.30;19.83;;;;;;;;;;5050420;28;20021;-63
2022/12/22 15:25:22;;;;;;;39.10;19.63;;;;;;;;;;5032613;28;20104;-64
2022/12/22 15:27:49;;;;;;;32.97;19.63;;;;;;;;;;5032384;28;20056;-61
2022/12/22 15:30:20;;;;;;;38.05;20.00;;;;;;;;;;5050452;28;20037;-62
2022/12/22 15:32:46;;;;;;;37.50;19.92;;;;;;;;;;5050301;28;20033;-61
2022/12/22 15:35:24;;;;;;;34.22;19.70;;;;;;;;;;5050425;28;20025;-61
2022/12/22 15:37:50;;;;;;;38.30;19.40;;;;;;;;;;5050182;28;20033;-61
2022/12/22 15:40:19;;;;;;;33.65;18.98;;;;;;;;;;5050566;28;20086;-60
2022/12/22 15:42:45;;;;;;;33.97;19.55;;;;;;;;;;5050233;28;20040;-61
2022/12/22 15:45:10;;;;;;;42.38;21.27;;;;;;;;;;5032410;28;20025;-60
2022/12/22 15:47:36;;;;;;;36.58;19.85;;;;;;;;;;5050587;28;20017;-61
2022/12/22 15:50:03;;;;;;;37.55;20.05;;;;;;;;;;5050226;28;20494;-61
2022/12/22 15:52:30;;;;;;;38.38;20.20;;;;;;;;;;5032761;28;20036;-61
2022/12/22 15:54:57;;;;;;;34.08;19.55;;;;;;;;;;5036649;28;20040;-61
2022/12/22 15:57:22;;;;;;;39.80;19.80;;;;;;;;;;5033716;28;20459;-59
2022/12/22 15:59:48;;;;;;;40.22;19.90;;;;;;;;;;5034035;28;20040;-61
2022/12/22 16:02:14;;;;;;;33.30;18.80;;;;;;;;;;5048650;28;20480;-60
2022/12/22 16:04:39;;;;;;;36.25;19.33;;;;;;;;;;5052731;28;20053;-61
2022/12/22 16:07:05;;;;;;;36.15;19.30;;;;;;;;;;5053603;28;20025;-60
2022/12/22 16:09:40;;;;;;;34.95;19.55;;;;;;;;;;5035690;28;20063;-60
2022/12/22 16:12:14;;;;;;;33.35;19.33;;;;;;;;;;5053555;28;20025;-61
2022/12/22 16:14:42;;;;;;;36.60;19.88;;;;;;;;;;5053567;28;20100;-60
2022/12/22 16:17:18;;;;;;;38.53;20.23;;;;;;;;;;5053448;28;20037;-61
2022/12/22 16:19:44;;;;;;;35.75;19.52;;;;;;;;;;5051601;28;20068;-60
2022/12/22 16:22:14;;;;;;;36.08;18.30;;;;;;;;;;5051875;28;20470;-61
2022/12/22 16:24:43;;;;;;;34.65;18.17;;;;;;;;;;5051756;28;20021;-61
2022/12/22 16:27:10;;;;;;;31.88;19.00;;;;;;;;;;5043151;28;20423;-60
2022/12/22 16:29:37;;;;;;;31.63;19.15;;;;;;;;;;5051537;28;20082;-61
2022/12/22 16:32:21;;;;;;;34.45;19.05;;;;;;;;;;5052474;28;20087;-61
2022/12/22 16:34:47;;;;;;;39.28;19.42;;;;;;;;;;5052019;28;20075;-60
2022/12/22 16:37:13;;;;;;;31.42;18.83;;;;;;;;;;5042906;28;20045;-61
2022/12/22 16:39:39;;;;;;;34.45;19.77;;;;;;;;;;5042826;28;20025;-60
2022/12/22 16:42:09;;;;;;;33.55;19.73;;;;;;;;;;5034405;28;20053;-61
2022/12/22 16:44:35;;;;;;;34.22;18.85;;;;;;;;;;5051802;28;20023;-62
2022/12/22 16:47:03;;;;;;;34.00;19.98;;;;;;;;;;5052846;28;20115;-60
2022/12/22 16:49:29;;;;;;;34.88;19.15;;;;;;;;;;5052792;28;20557;-61
2022/12/22 16:51:54;;;;;;;39.60;20.42;;;;;;;;;;5052799;28;20041;-62
2022/12/22 16:54:20;;;;;;;38.47;19.02;;;;;;;;;;5052664;28;20025;-61
2022/12/22 16:56:49;;;;;;;38.10;20.02;;;;;;;;;;5052174;28;20053;-61
2022/12/22 16:59:16;;;;;;;32.95;19.48;;;;;;;;;;5052591;28;20797;-61
2022/12/22 17:01:53;;;;;;;38.60;20.15;;;;;;;;;;5052664;28;20029;-60
2022/12/22 17:04:23;;;;;;;39.97;21.35;;;;;;;;;;5052172;28;20033;-61
2022/12/22 17:06:50;;;;;;;36.85;19.85;;;;;;;;;;5052566;28;20091;-60
2022/12/22 17:09:26;;;;;;;33.80;19.45;;;;;;;;;;5052309;28;20037;-61
2022/12/22 17:11:53;;;;;;;38.10;20.80;;;;;;;;;;5052463;28;20028;-61
2022/12/22 17:14:19;;;;;;;34.83;20.08;;;;;;;;;;5052218;28;20033;-61
2022/12/22 17:16:45;;;;;;;38.60;19.92;;;;;;;;;;5052591;28;20759;-61
2022/12/22 17:19:11;;;;;;;35.35;20.05;;;;;;;;;;5034081;28;20439;-60
2022/12/22 17:21:37;;;;;;;34.75;19.40;;;;;;;;;;5052180;28;20043;-61
2022/12/22 17:24:04;;;;;;;34.05;20.00;;;;;;;;;;5050122;28;20477;-60
2022/12/22 17:26:32;;;;;;;36.15;19.80;;;;;;;;;;5032384;28;20039;-61
2022/12/22 17:28:58;;;;;;;33.30;18.98;;;;;;;;;;5051991;28;20033;-61
2022/12/22 17:31:25;;;;;;;35.30;19.02;;;;;;;;;;5051433;28;20021;-61
2022/12/22 17:33:50;;;;;;;33.75;19.40;;;;;;;;;;5051783;28;20060;-62
2022/12/22 17:36:34;;;;;;;32.63;19.63;;;;;;;;;;5051916;28;20718;-62
2022/12/22 17:39:01;;;;;;;31.85;18.65;;;;;;;;;;5050344;28;20041;-61
2022/12/22 17:41:27;;;;;;;33.00;19.10;;;;;;;;;;5051543;28;20036;-62
2022/12/22 17:43:53;;;;;;;28.65;19.15;;;;;;;;;;5030338;28;20385;-60
2022/12/22 17:46:20;;;;;;;33.90;19.77;;;;;;;;;;5050584;28;20517;-61
2022/12/22 17:48:46;;;;;;;32.92;19.58;;;;;;;;;;5048894;28;20025;-61
2022/12/22 17:51:26;;;;;;;33.65;19.30;;;;;;;;;;5051609;28;20033;-62
2022/12/22 17:53:52;;;;;;;31.83;19.73;;;;;;;;;;5051528;28;20025;-60
2022/12/22 17:56:21;;;;;;;35.20;19.80;;;;;;;;;;5051376;28;20122;-60
2022/12/22 17:58:48;;;;;;;28.35;18.52;;;;;;;;;;5051355;28;20536;-61
2022/12/22 18:01:26;;;;;;;35.13;18.48;;;;;;;;;;5049778;28;20548;-62
2022/12/22 18:03:53;;;;;;;31.98;17.60;;;;;;;;;;5050226;28;20032;-62
2022/12/22 18:06:23;;;;;;;35.05;18.98;;;;;;;;;;5051352;28;20033;-62
2022/12/22 18:08:50;;;;;;;32.00;18.17;;;;;;;;;;5051465;28;20431;-63
2022/12/22 18:11:15;;;;;;;28.23;17.05;;;;;;;;;;5049957;28;20033;-61
2022/12/22 18:13:41;;;;;;;29.77;17.90;;;;;;;;;;5049050;28;20052;-61
2022/12/22 18:16:13;;;;;;;31.48;18.70;;;;;;;;;;5050366;28;20032;-61
2022/12/22 18:18:38;;;;;;;27.13;17.67;;;;;;;;;;5051237;28;20036;-61
2022/12/22 18:21:04;;;;;;;30.83;17.42;;;;;;;;;;5050901;28;20070;-61